関東・中部TAF電文


百里(RJAH)
3/3 2h
TAF RJAH 021705Z 0218/0400 23010KT 9999 FEW030=

成田(RJAA)
3/3 2h
TAF RJAA 021705Z 0218/0400 34004KT 9999 FEW030 BECMG 0300/0302
22010KT BECMG 0309/0312 26004KT=

羽田(RJTT)
3/3 2h
TAF RJTT 021706Z 0218/0400 34010KT 9999 FEW030 SCT060 BECMG
0223/0301 20016KT BECMG 0309/0312 25010KT=

新潟(RJSN)
3/3 2h
TAF RJSN 021705Z 0218/0400 22018KT 8000 -SHSN FEW008 BKN015 TEMPO
0218/0223 3000 -SHSN TEMPO 0223/0303 23030G40KT 4000 -SHRA
BR FEW005 BKN008 TEMPO 0303/0309 25030G40KT 4000 -TSRAGS BR
FEW005 BKN008 FEW020CB TEMPO 0315/0400 3000 -SHSNRA BECMG
0318/0321 26006KT=

富山(RJNT)
3/3 2h
TAF RJNT 021705Z 0218/0400 20012KT 9999 FEW020 BKN040 TEMPO
0303/0309 4000 TSRAGS BR FEW005 BKN008 FEW020CB TEMPO
0315/0400 FEW005 BKN008=

小松(RJNK)
3/3 3h
TAF AMD RJNK 021804Z 0218/0400 20016KT 9999 FEW010 BKN020 TEMPO
0218/0221 3000 -SHSN FEW005 BKN008 TEMPO 0303/0309
24024G34KT 4000 TSRAGS BR FEW005 BKN008 FEW020CB BECMG
0304/0306 27018KT BECMG 0312/0315 22006KT TEMPO 0315/0400
4000 -SHRA BR=

静岡(RJNS)
3/3 2h
TAF RJNS 021724Z 0218/0400 27014KT 9999 FEW030 TEMPO 0302/0309
25018G28KT=

中部国際(RJGG)
3/3 2h
TAF RJGG 021705Z 0218/0400 29014KT 9999 FEW030=
Copyright(c) 2014 International Meteorological & Oceanographic Consultants Co,.Ltd. All Rights Reserved. Design by http://f-tpl.com